Megargel, TX (76370)

12:03 PM CST on March 06, 2015 (GMT -0600)
DDR Longhorns Graham, Texas | Change Station
CLOSE
Current Station
Personal Weather Station
Location: Graham, TX
Elevation: 1178 ft
Nearby Weather Stations

Elev 1178 ft 33.18 °N, 98.67 °W | Updated 2 seconds ago

Clear
Clear
46.0 °F
Feels Like 42 °F
N
8.9
Wind Variable Wind from SSW
Gusts 11.0 mph

Today
High -- | Low -- °F
--% Chance of Precip.
Yesterday
High -- | Low -- °F
Precip. -- in
6:57 AM 6:35 PM
Full, 99% visible
Pressure 30.53 in
Visibility 10.0 miles
Clouds Clear
Windchill 42 °F
Dew Point 19 °F
Humidity 34%
Rainfall in
Snow Depth Not available.
UV 7 out of 12
Pollen 7.50 out of 12
Air Quality Not available.
Flu Activity Not available.
METAR KRPH 061755Z AUTO 19006KT 10SM CLR 09/M03 A3053 RMK AO2 T00851030 10085 21061

More Conditions Fewer Conditions

Pressure 30.53 in
Visibility 10.0 miles
Clouds Clear
Windchill 42 °F
Dew Point 19 °F
Humidity 34%
Rainfall in
Snow Depth Not available.
UV 7 out of 12
Pollen 7.50 out of 12
Air Quality Not available.
Flu Activity Not available.
METAR KRPH 061755Z AUTO 19006KT 10SM CLR 09/M03 A3053 RMK AO2 T00851030 10085 21061

More Conditions Fewer Conditions

10-Day Weather Forecast

Almanac

Astronomy

Mar. 06, 2015 Rise Set
Actual Time
Civil Twilight
Nautical Twilight
Astronomical Twilight
Moon
Length of Visible Light
Length of Day
Tomorrow will be .
, % of the Moon is Illuminated

Today's Extremes

State Highs State Lows

Community

WunderPhotos

Upload Photos

1,803,357 photos uploaded!

WunderBlogs® & News

Nearby

Air Quality

  Air Quality AQ Index Pollutant
Not available.

Snow Depth

Station Depth Elevation

Earthquake Activity

City Distance Mag. Time & Date
Minimum magnitude displayed is 2.5.

Coastal Water Temperatures

Place Temperature

Nearby Weather Stations